createdAt,value
2022-09-18T00:00:59.370Z,8
2022-09-18T00:06:06.926Z,8
2022-09-18T00:11:14.582Z,8
2022-09-18T00:16:22.146Z,8
2022-09-18T00:21:29.614Z,8
2022-09-18T00:26:37.064Z,8
2022-09-18T00:31:44.517Z,8
2022-09-18T00:36:51.954Z,8
2022-09-18T00:41:59.389Z,8.5
2022-09-18T00:47:06.845Z,8
2022-09-18T00:52:14.313Z,8
2022-09-18T00:57:21.777Z,8
2022-09-18T01:02:29.232Z,8
2022-09-18T01:07:36.675Z,8
2022-09-18T01:12:44.152Z,8
2022-09-18T01:17:51.608Z,8
2022-09-18T01:22:59.107Z,8.5
2022-09-18T01:28:06.571Z,8.5
2022-09-18T01:33:14.038Z,8.5
2022-09-18T01:38:21.500Z,8.5
2022-09-18T01:43:28.947Z,8.5
2022-09-18T01:48:36.474Z,8.5
2022-09-18T01:53:43.869Z,8.5
2022-09-18T01:58:51.327Z,8.5
2022-09-18T02:03:58.834Z,8.5
2022-09-18T02:09:06.283Z,8.5
2022-09-18T02:14:13.756Z,8.5
2022-09-18T02:19:21.237Z,8.5
2022-09-18T02:24:28.711Z,8.5
2022-09-18T02:29:36.164Z,9
2022-09-18T02:34:43.631Z,9
2022-09-18T02:39:51.116Z,9
2022-09-18T02:44:58.627Z,9
2022-09-18T02:50:06.087Z,9
2022-09-18T02:55:13.545Z,9
2022-09-18T03:00:21.023Z,9
2022-09-18T03:05:28.512Z,9
2022-09-18T03:10:35.995Z,9.5
2022-09-18T03:15:42.324Z,9.5
2022-09-18T03:20:49.399Z,9.5
2022-09-18T03:25:56.462Z,9.5
2022-09-18T03:31:03.548Z,9.5
2022-09-18T03:36:10.626Z,9.5
2022-09-18T03:41:17.687Z,9.5
2022-09-18T03:46:24.798Z,9.5
2022-09-18T03:51:31.872Z,9.5
2022-09-18T03:56:38.953Z,9.5
2022-09-18T04:01:46.074Z,9.5
2022-09-18T04:06:53.182Z,9.5
2022-09-18T04:12:00.323Z,9.5
2022-09-18T04:17:07.433Z,9.5
2022-09-18T04:22:14.583Z,9.5
2022-09-18T04:27:21.727Z,9.5
2022-09-18T04:32:28.877Z,9.5
2022-09-18T04:37:36.006Z,9.5
2022-09-18T04:42:43.152Z,9.5
2022-09-18T04:47:50.304Z,9.5
2022-09-18T04:52:57.429Z,9.5
2022-09-18T04:58:04.552Z,9.5
2022-09-18T05:03:11.677Z,9.5
2022-09-18T05:08:18.807Z,9.5
2022-09-18T05:13:25.947Z,9.5
2022-09-18T05:18:33.046Z,10
2022-09-18T05:23:40.235Z,10
2022-09-18T05:28:47.396Z,9.5
2022-09-18T05:33:54.567Z,10
2022-09-18T05:39:01.745Z,10
2022-09-18T05:44:08.910Z,10
2022-09-18T05:49:16.050Z,10
2022-09-18T05:54:23.232Z,10
2022-09-18T05:59:30.383Z,10
2022-09-18T06:04:37.545Z,10
2022-09-18T06:09:44.669Z,10
2022-09-18T06:14:51.783Z,10
2022-09-18T06:19:58.876Z,10
2022-09-18T06:25:06.008Z,10
2022-09-18T06:30:13.231Z,10
2022-09-18T06:35:20.512Z,10.5
2022-09-18T06:40:27.766Z,10.5
2022-09-18T06:45:34.998Z,10
2022-09-18T06:50:42.202Z,10
2022-09-18T06:55:49.422Z,10.5
2022-09-18T07:00:56.721Z,10.5
2022-09-18T07:06:03.807Z,10.5
2022-09-18T07:11:10.983Z,10
2022-09-18T07:16:18.147Z,10.5
2022-09-18T07:21:25.265Z,10.5
2022-09-18T07:26:32.350Z,10.5
2022-09-18T07:31:39.452Z,10.5
2022-09-18T07:50:56.082Z,10.5
2022-09-18T07:56:02.917Z,10.5
2022-09-18T08:01:09.753Z,10.5
2022-09-18T08:06:16.588Z,10.5
2022-09-18T08:11:23.443Z,10.5
2022-09-18T08:16:30.286Z,10.5
2022-09-18T08:21:37.153Z,10.5
2022-09-18T08:26:44.026Z,10.5
2022-09-18T08:31:50.862Z,10.5
2022-09-18T08:36:57.798Z,10.5
2022-09-18T08:42:04.640Z,10.5
2022-09-18T08:47:11.515Z,10.5
2022-09-18T08:52:18.383Z,10.5
2022-09-18T08:57:25.259Z,10.5
2022-09-18T09:02:32.119Z,10.5
2022-09-18T09:07:39.004Z,10.5
2022-09-18T09:12:45.909Z,10.5
2022-09-18T09:17:52.827Z,10.5
2022-09-18T09:22:59.752Z,10.5
2022-09-18T09:28:06.663Z,10.5
2022-09-18T09:33:13.563Z,10.5
2022-09-18T09:38:20.484Z,10.5
2022-09-18T09:43:27.379Z,10.5
2022-09-18T09:48:34.270Z,10.5
2022-09-18T09:53:41.153Z,11
2022-09-18T09:58:47.997Z,11
2022-09-18T10:03:54.814Z,10.5
2022-09-18T10:09:01.642Z,11
2022-09-18T10:14:08.436Z,11
2022-09-18T10:19:15.234Z,11
2022-09-18T10:24:22.055Z,11
2022-09-18T10:34:35.678Z,11
2022-09-18T10:44:49.255Z,11
2022-09-18T10:49:56.033Z,11
2022-09-18T10:55:02.842Z,11
2022-09-18T11:00:09.700Z,11
2022-09-18T11:05:16.557Z,11
2022-09-18T11:10:23.422Z,11
2022-09-18T11:15:30.280Z,11
2022-09-18T11:20:37.079Z,11
2022-09-18T11:25:43.883Z,11
2022-09-18T11:30:50.678Z,11
2022-09-18T11:35:57.482Z,11
2022-09-18T11:41:04.241Z,11
2022-09-18T11:46:10.993Z,11
2022-09-18T11:51:17.647Z,11
2022-09-18T11:56:24.275Z,11
2022-09-18T12:01:30.887Z,11
2022-09-18T12:06:37.484Z,11
2022-09-18T12:11:42.718Z,11
2022-09-18T12:16:49.362Z,11
2022-09-18T12:21:56.015Z,11
2022-09-18T12:27:02.743Z,11
2022-09-18T12:32:09.475Z,11
2022-09-18T12:37:16.196Z,11
2022-09-18T12:42:23.750Z,11
2022-09-18T12:47:30.502Z,11
2022-09-18T12:52:37.328Z,11
2022-09-18T12:57:44.174Z,11
2022-09-18T13:02:51.113Z,11
2022-09-18T13:07:58.027Z,11
2022-09-18T13:13:04.944Z,11
2022-09-18T13:18:12.777Z,11
2022-09-18T13:23:19.773Z,11
2022-09-18T13:28:26.851Z,11
2022-09-18T13:33:33.804Z,11
2022-09-18T13:38:40.905Z,11
2022-09-18T13:43:47.990Z,11
2022-09-18T13:48:55.099Z,11
2022-09-18T13:54:02.169Z,11
2022-09-18T13:59:09.205Z,11
2022-09-18T14:04:16.206Z,11
2022-09-18T14:09:23.174Z,11
2022-09-18T14:14:30.135Z,11
2022-09-18T14:19:37.106Z,11
2022-09-18T14:24:44.051Z,11
2022-09-18T14:29:51.008Z,11
2022-09-18T14:34:57.880Z,11
2022-09-18T14:40:04.695Z,11
2022-09-18T14:45:11.456Z,11
2022-09-18T14:50:18.199Z,11
2022-09-18T14:55:25.002Z,11
2022-09-18T15:00:35.729Z,11.5
2022-09-18T15:05:38.626Z,11
2022-09-18T15:10:45.474Z,11.5
2022-09-18T15:15:52.417Z,11
2022-09-18T15:20:59.257Z,11.5
2022-09-18T15:26:06.060Z,11.5
2022-09-18T15:31:11.700Z,11
2022-09-18T15:36:17.974Z,11.5
2022-09-18T15:41:24.227Z,11.5
2022-09-18T15:46:30.471Z,11.5
2022-09-18T15:51:36.714Z,11.5
2022-09-18T15:56:43.059Z,11.5
2022-09-18T16:01:49.460Z,11.5
2022-09-18T16:06:55.900Z,11.5
2022-09-18T16:12:02.346Z,11.5
2022-09-18T16:17:08.829Z,11.5
2022-09-18T16:22:15.352Z,11.5
2022-09-18T16:27:21.871Z,11.5
2022-09-18T16:32:28.402Z,11.5
2022-09-18T16:37:34.939Z,11.5
2022-09-18T16:42:41.490Z,11.5
2022-09-18T16:47:47.982Z,11.5
2022-09-18T16:52:54.493Z,11.5
2022-09-18T16:58:01.001Z,11.5
2022-09-18T17:03:07.517Z,11.5
2022-09-18T17:08:14.059Z,11.5
2022-09-18T17:13:20.628Z,11.5
2022-09-18T17:18:27.220Z,11.5
2022-09-18T17:23:33.813Z,11.5
2022-09-18T17:28:40.388Z,11.5
2022-09-18T17:33:47.017Z,11.5
2022-09-18T17:38:53.779Z,11.5
2022-09-18T17:44:00.484Z,11.5
2022-09-18T17:49:07.178Z,11.5
2022-09-18T17:54:13.866Z,11.5
2022-09-18T17:59:20.538Z,11.5
2022-09-18T18:04:27.228Z,11.5
2022-09-18T18:09:33.938Z,11.5
2022-09-18T18:14:40.634Z,11
2022-09-18T18:19:47.297Z,11
2022-09-18T18:24:53.945Z,11
2022-09-18T18:30:00.620Z,11
2022-09-18T18:35:07.362Z,11
2022-09-18T18:40:14.002Z,11
2022-09-18T18:45:20.837Z,11
2022-09-18T18:50:27.703Z,11
2022-09-18T18:55:34.547Z,11
2022-09-18T19:00:41.359Z,11
2022-09-18T19:05:48.219Z,11
2022-09-18T19:10:55.060Z,11
2022-09-18T19:16:01.869Z,11
2022-09-18T19:21:08.756Z,11
2022-09-18T19:26:15.575Z,11
2022-09-18T19:31:22.436Z,11
2022-09-18T19:36:29.275Z,11
2022-09-18T19:41:36.138Z,11
2022-09-18T19:46:42.996Z,11
2022-09-18T19:51:50.074Z,11
2022-09-18T19:56:57.150Z,11
2022-09-18T20:02:04.233Z,11
2022-09-18T20:07:11.309Z,11
2022-09-18T20:12:18.387Z,11
2022-09-18T20:17:25.474Z,11
2022-09-18T20:22:32.576Z,11
2022-09-18T20:27:39.662Z,11
2022-09-18T20:32:46.741Z,11
2022-09-18T20:37:53.837Z,11
2022-09-18T20:43:00.894Z,11
2022-09-18T20:48:07.984Z,11
2022-09-18T20:53:15.041Z,11
2022-09-18T20:58:22.736Z,11
2022-09-18T21:03:28.957Z,11
2022-09-18T21:08:35.583Z,11
2022-09-18T21:13:42.224Z,11
2022-09-18T21:18:48.860Z,11
2022-09-18T21:29:02.136Z,11
2022-09-18T21:34:08.779Z,11
2022-09-18T21:39:15.410Z,11
2022-09-18T21:44:22.030Z,11
2022-09-18T21:49:28.667Z,11
2022-09-18T21:54:35.330Z,11
2022-09-18T21:59:41.973Z,11
2022-09-18T22:04:48.622Z,11
2022-09-18T22:09:55.246Z,11
2022-09-18T22:15:01.912Z,11
2022-09-18T22:20:08.615Z,11
2022-09-18T22:25:15.165Z,11
2022-09-18T22:35:28.486Z,11
2022-09-18T22:40:35.065Z,11
2022-09-18T22:45:41.677Z,11
2022-09-18T22:50:48.327Z,11
2022-09-18T22:55:54.945Z,11
2022-09-18T23:01:01.560Z,11
2022-09-18T23:06:08.181Z,11
2022-09-18T23:11:14.847Z,11
2022-09-18T23:16:21.546Z,11
2022-09-18T23:21:28.199Z,11
2022-09-18T23:26:34.875Z,11
2022-09-18T23:31:41.542Z,11
2022-09-18T23:36:48.204Z,11
2022-09-18T23:41:54.855Z,11
2022-09-18T23:47:01.487Z,11
2022-09-18T23:52:08.133Z,11
2022-09-18T23:57:14.799Z,11
